sensor_id;sensor_type;location;lat;lon;timestamp;P1;durP1;ratioP1;P2;durP2;ratioP2
3022;SDS011;1521;53.584;9.938;2023-07-08T00:00:44;11.93;;;7.33;;
3022;SDS011;1521;53.584;9.938;2023-07-08T00:03:13;11.20;;;7.17;;
3022;SDS011;1521;53.584;9.938;2023-07-08T00:05:39;9.93;;;7.97;;
3022;SDS011;1521;53.584;9.938;2023-07-08T00:08:08;9.00;;;7.33;;
3022;SDS011;1521;53.584;9.938;2023-07-08T00:10:45;11.10;;;7.13;;
3022;SDS011;1521;53.584;9.938;2023-07-08T00:13:11;9.60;;;7.43;;
3022;SDS011;1521;53.584;9.938;2023-07-08T00:15:37;9.80;;;7.97;;
3022;SDS011;1521;53.584;9.938;2023-07-08T00:18:10;9.33;;;8.20;;
3022;SDS011;1521;53.584;9.938;2023-07-08T00:20:38;9.20;;;8.20;;
3022;SDS011;1521;53.584;9.938;2023-07-08T00:23:09;10.17;;;7.77;;
3022;SDS011;1521;53.584;9.938;2023-07-08T00:25:35;10.53;;;7.83;;
3022;SDS011;1521;53.584;9.938;2023-07-08T00:28:01;10.27;;;7.50;;
3022;SDS011;1521;53.584;9.938;2023-07-08T00:30:30;10.67;;;7.77;;
3022;SDS011;1521;53.584;9.938;2023-07-08T00:32:56;11.83;;;7.40;;
3022;SDS011;1521;53.584;9.938;2023-07-08T00:35:26;11.73;;;7.93;;
3022;SDS011;1521;53.584;9.938;2023-07-08T00:37:56;12.13;;;7.30;;
3022;SDS011;1521;53.584;9.938;2023-07-08T00:40:26;8.17;;;6.90;;
3022;SDS011;1521;53.584;9.938;2023-07-08T00:42:56;12.50;;;7.30;;
3022;SDS011;1521;53.584;9.938;2023-07-08T00:50:53;14.03;;;8.10;;
3022;SDS011;1521;53.584;9.938;2023-07-08T00:53:23;9.10;;;8.17;;
3022;SDS011;1521;53.584;9.938;2023-07-08T00:55:51;8.17;;;7.37;;
3022;SDS011;1521;53.584;9.938;2023-07-08T00:58:19;7.90;;;7.10;;
3022;SDS011;1521;53.584;9.938;2023-07-08T01:00:48;13.90;;;8.50;;
3022;SDS011;1521;53.584;9.938;2023-07-08T01:03:15;10.90;;;8.30;;
3022;SDS011;1521;53.584;9.938;2023-07-08T01:05:43;11.97;;;8.33;;
3022;SDS011;1521;53.584;9.938;2023-07-08T01:08:09;13.50;;;9.07;;
3022;SDS011;1521;53.584;9.938;2023-07-08T01:10:46;9.93;;;8.93;;
3022;SDS011;1521;53.584;9.938;2023-07-08T01:13:17;10.33;;;9.10;;
3022;SDS011;1521;53.584;9.938;2023-07-08T01:15:46;8.77;;;7.60;;
3022;SDS011;1521;53.584;9.938;2023-07-08T01:18:14;10.50;;;8.97;;
3022;SDS011;1521;53.584;9.938;2023-07-08T01:20:42;9.80;;;8.80;;
3022;SDS011;1521;53.584;9.938;2023-07-08T01:23:11;12.00;;;9.23;;
3022;SDS011;1521;53.584;9.938;2023-07-08T01:25:37;13.00;;;8.90;;
3022;SDS011;1521;53.584;9.938;2023-07-08T01:28:03;10.57;;;8.77;;
3022;SDS011;1521;53.584;9.938;2023-07-08T01:30:29;9.53;;;8.47;;
3022;SDS011;1521;53.584;9.938;2023-07-08T01:32:56;11.47;;;9.13;;
3022;SDS011;1521;53.584;9.938;2023-07-08T01:35:24;9.87;;;8.90;;
3022;SDS011;1521;53.584;9.938;2023-07-08T01:37:54;14.60;;;8.97;;
3022;SDS011;1521;53.584;9.938;2023-07-08T01:42:49;10.73;;;9.53;;
3022;SDS011;1521;53.584;9.938;2023-07-08T01:45:17;14.07;;;9.57;;
3022;SDS011;1521;53.584;9.938;2023-07-08T01:47:51;11.30;;;9.57;;
3022;SDS011;1521;53.584;9.938;2023-07-08T01:50:17;14.27;;;9.80;;
3022;SDS011;1521;53.584;9.938;2023-07-08T01:52:44;10.00;;;8.90;;
3022;SDS011;1521;53.584;9.938;2023-07-08T01:55:11;175.80;;;99.47;;
3022;SDS011;1521;53.584;9.938;2023-07-08T01:57:37;212.60;;;133.63;;
3022;SDS011;1521;53.584;9.938;2023-07-08T02:00:02;78.90;;;53.33;;
3022;SDS011;1521;53.584;9.938;2023-07-08T02:02:29;85.03;;;50.63;;
3022;SDS011;1521;53.584;9.938;2023-07-08T02:04:55;38.83;;;26.60;;
3022;SDS011;1521;53.584;9.938;2023-07-08T02:07:20;18.27;;;12.33;;
3022;SDS011;1521;53.584;9.938;2023-07-08T02:09:46;10.73;;;9.63;;
3022;SDS011;1521;53.584;9.938;2023-07-08T02:12:11;14.90;;;9.90;;
3022;SDS011;1521;53.584;9.938;2023-07-08T02:14:37;13.17;;;10.07;;
3022;SDS011;1521;53.584;9.938;2023-07-08T02:17:03;12.80;;;9.73;;
3022;SDS011;1521;53.584;9.938;2023-07-08T02:19:30;13.13;;;8.70;;
3022;SDS011;1521;53.584;9.938;2023-07-08T02:21:56;11.57;;;9.43;;
3022;SDS011;1521;53.584;9.938;2023-07-08T02:24:22;13.37;;;10.07;;
3022;SDS011;1521;53.584;9.938;2023-07-08T02:26:48;12.27;;;9.10;;
3022;SDS011;1521;53.584;9.938;2023-07-08T02:29:14;14.67;;;9.67;;
3022;SDS011;1521;53.584;9.938;2023-07-08T02:31:40;13.80;;;9.80;;
3022;SDS011;1521;53.584;9.938;2023-07-08T02:34:05;15.40;;;9.60;;
3022;SDS011;1521;53.584;9.938;2023-07-08T02:36:32;12.80;;;9.70;;
3022;SDS011;1521;53.584;9.938;2023-07-08T02:38:59;10.70;;;9.60;;
3022;SDS011;1521;53.584;9.938;2023-07-08T02:41:24;13.37;;;9.93;;
3022;SDS011;1521;53.584;9.938;2023-07-08T02:43:50;10.87;;;9.50;;
3022;SDS011;1521;53.584;9.938;2023-07-08T02:46:15;10.13;;;8.70;;
3022;SDS011;1521;53.584;9.938;2023-07-08T02:48:41;11.07;;;8.90;;
3022;SDS011;1521;53.584;9.938;2023-07-08T02:51:06;12.43;;;9.17;;
3022;SDS011;1521;53.584;9.938;2023-07-08T02:53:34;14.10;;;9.20;;
3022;SDS011;1521;53.584;9.938;2023-07-08T02:56:00;12.77;;;9.73;;
3022;SDS011;1521;53.584;9.938;2023-07-08T02:58:25;10.97;;;9.43;;
3022;SDS011;1521;53.584;9.938;2023-07-08T03:00:52;12.17;;;9.80;;
3022;SDS011;1521;53.584;9.938;2023-07-08T03:03:18;14.80;;;9.60;;
3022;SDS011;1521;53.584;9.938;2023-07-08T03:05:43;10.83;;;9.20;;
3022;SDS011;1521;53.584;9.938;2023-07-08T03:08:09;12.63;;;9.70;;
3022;SDS011;1521;53.584;9.938;2023-07-08T03:10:34;10.83;;;9.73;;
3022;SDS011;1521;53.584;9.938;2023-07-08T03:13:00;12.80;;;9.53;;
3022;SDS011;1521;53.584;9.938;2023-07-08T03:15:26;16.93;;;10.50;;
3022;SDS011;1521;53.584;9.938;2023-07-08T03:17:51;13.57;;;8.83;;
3022;SDS011;1521;53.584;9.938;2023-07-08T03:20:22;9.60;;;8.70;;
3022;SDS011;1521;53.584;9.938;2023-07-08T03:22:47;12.60;;;9.80;;
3022;SDS011;1521;53.584;9.938;2023-07-08T03:25:13;13.07;;;9.57;;
3022;SDS011;1521;53.584;9.938;2023-07-08T03:27:39;10.93;;;9.30;;
3022;SDS011;1521;53.584;9.938;2023-07-08T03:30:04;9.97;;;8.97;;
3022;SDS011;1521;53.584;9.938;2023-07-08T03:32:30;20.30;;;10.40;;
3022;SDS011;1521;53.584;9.938;2023-07-08T03:34:56;10.20;;;8.70;;
3022;SDS011;1521;53.584;9.938;2023-07-08T03:37:22;12.53;;;8.77;;
3022;SDS011;1521;53.584;9.938;2023-07-08T03:39:47;11.27;;;9.20;;
3022;SDS011;1521;53.584;9.938;2023-07-08T03:42:13;11.23;;;9.20;;
3022;SDS011;1521;53.584;9.938;2023-07-08T03:44:38;12.93;;;10.33;;
3022;SDS011;1521;53.584;9.938;2023-07-08T03:47:04;10.50;;;9.40;;
3022;SDS011;1521;53.584;9.938;2023-07-08T03:49:29;10.60;;;9.50;;
3022;SDS011;1521;53.584;9.938;2023-07-08T03:51:55;13.77;;;9.10;;
3022;SDS011;1521;53.584;9.938;2023-07-08T03:54:22;26.83;;;9.47;;
3022;SDS011;1521;53.584;9.938;2023-07-08T03:56:48;11.30;;;9.57;;
3022;SDS011;1521;53.584;9.938;2023-07-08T03:59:14;11.37;;;8.30;;
3022;SDS011;1521;53.584;9.938;2023-07-08T04:01:40;12.23;;;9.10;;
3022;SDS011;1521;53.584;9.938;2023-07-08T04:04:06;10.23;;;8.00;;
3022;SDS011;1521;53.584;9.938;2023-07-08T04:06:34;13.33;;;8.27;;
3022;SDS011;1521;53.584;9.938;2023-07-08T04:09:00;10.33;;;8.33;;
3022;SDS011;1521;53.584;9.938;2023-07-08T04:11:26;14.87;;;9.17;;
3022;SDS011;1521;53.584;9.938;2023-07-08T04:13:51;8.73;;;7.60;;
3022;SDS011;1521;53.584;9.938;2023-07-08T04:16:24;8.40;;;7.60;;
3022;SDS011;1521;53.584;9.938;2023-07-08T04:18:53;9.27;;;7.97;;
3022;SDS011;1521;53.584;9.938;2023-07-08T04:21:19;11.50;;;8.90;;
3022;SDS011;1521;53.584;9.938;2023-07-08T04:23:45;9.73;;;8.17;;
3022;SDS011;1521;53.584;9.938;2023-07-08T04:26:11;8.33;;;7.33;;
3022;SDS011;1521;53.584;9.938;2023-07-08T04:28:37;7.93;;;7.17;;
3022;SDS011;1521;53.584;9.938;2023-07-08T04:31:02;9.27;;;7.00;;
3022;SDS011;1521;53.584;9.938;2023-07-08T04:33:29;8.80;;;6.77;;
3022;SDS011;1521;53.584;9.938;2023-07-08T04:35:55;11.83;;;7.40;;
3022;SDS011;1521;53.584;9.938;2023-07-08T04:38:22;8.33;;;6.80;;
3022;SDS011;1521;53.584;9.938;2023-07-08T04:40:49;11.57;;;7.43;;
3022;SDS011;1521;53.584;9.938;2023-07-08T04:43:16;7.27;;;6.57;;
3022;SDS011;1521;53.584;9.938;2023-07-08T04:45:43;10.53;;;6.33;;
3022;SDS011;1521;53.584;9.938;2023-07-08T04:48:18;10.80;;;7.00;;
3022;SDS011;1521;53.584;9.938;2023-07-08T04:50:46;6.83;;;6.20;;
3022;SDS011;1521;53.584;9.938;2023-07-08T04:53:13;9.07;;;5.83;;
3022;SDS011;1521;53.584;9.938;2023-07-08T04:55:43;6.40;;;5.80;;
3022;SDS011;1521;53.584;9.938;2023-07-08T04:58:11;7.60;;;6.00;;
3022;SDS011;1521;53.584;9.938;2023-07-08T05:00:37;7.77;;;5.77;;
3022;SDS011;1521;53.584;9.938;2023-07-08T05:03:03;12.03;;;6.33;;
3022;SDS011;1521;53.584;9.938;2023-07-08T05:05:28;9.43;;;6.30;;
3022;SDS011;1521;53.584;9.938;2023-07-08T05:07:54;9.37;;;6.23;;
3022;SDS011;1521;53.584;9.938;2023-07-08T05:10:20;13.33;;;5.67;;
3022;SDS011;1521;53.584;9.938;2023-07-08T05:12:46;7.53;;;5.77;;
3022;SDS011;1521;53.584;9.938;2023-07-08T05:15:13;6.83;;;5.20;;
3022;SDS011;1521;53.584;9.938;2023-07-08T05:17:39;10.30;;;5.13;;
3022;SDS011;1521;53.584;9.938;2023-07-08T05:20:09;11.10;;;5.50;;
3022;SDS011;1521;53.584;9.938;2023-07-08T05:22:37;7.00;;;5.30;;
3022;SDS011;1521;53.584;9.938;2023-07-08T05:25:02;11.50;;;5.57;;
3022;SDS011;1521;53.584;9.938;2023-07-08T05:27:30;6.57;;;5.27;;
3022;SDS011;1521;53.584;9.938;2023-07-08T05:29:55;6.03;;;5.10;;
3022;SDS011;1521;53.584;9.938;2023-07-08T05:32:21;6.80;;;4.80;;
3022;SDS011;1521;53.584;9.938;2023-07-08T05:34:47;8.43;;;4.80;;
3022;SDS011;1521;53.584;9.938;2023-07-08T05:37:13;6.30;;;5.10;;
3022;SDS011;1521;53.584;9.938;2023-07-08T05:39:39;8.30;;;5.17;;
3022;SDS011;1521;53.584;9.938;2023-07-08T05:42:05;9.00;;;5.07;;
3022;SDS011;1521;53.584;9.938;2023-07-08T05:44:31;5.70;;;4.60;;
3022;SDS011;1521;53.584;9.938;2023-07-08T05:46:57;6.70;;;4.03;;
3022;SDS011;1521;53.584;9.938;2023-07-08T05:49:22;5.40;;;4.53;;
3022;SDS011;1521;53.584;9.938;2023-07-08T05:51:48;5.33;;;4.77;;
3022;SDS011;1521;53.584;9.938;2023-07-08T05:54:14;6.10;;;5.00;;
3022;SDS011;1521;53.584;9.938;2023-07-08T05:56:39;8.03;;;4.43;;
3022;SDS011;1521;53.584;9.938;2023-07-08T05:59:05;8.90;;;4.80;;
3022;SDS011;1521;53.584;9.938;2023-07-08T06:01:31;5.50;;;4.20;;
3022;SDS011;1521;53.584;9.938;2023-07-08T06:03:57;6.10;;;4.50;;
3022;SDS011;1521;53.584;9.938;2023-07-08T06:06:26;9.60;;;4.80;;
3022;SDS011;1521;53.584;9.938;2023-07-08T06:08:52;4.37;;;3.73;;
3022;SDS011;1521;53.584;9.938;2023-07-08T06:11:18;5.33;;;4.33;;
3022;SDS011;1521;53.584;9.938;2023-07-08T06:13:43;5.33;;;4.33;;
3022;SDS011;1521;53.584;9.938;2023-07-08T06:16:09;5.27;;;3.93;;
3022;SDS011;1521;53.584;9.938;2023-07-08T06:18:35;4.93;;;4.33;;
3022;SDS011;1521;53.584;9.938;2023-07-08T06:21:01;10.73;;;4.17;;
3022;SDS011;1521;53.584;9.938;2023-07-08T06:23:28;6.83;;;3.80;;
3022;SDS011;1521;53.584;9.938;2023-07-08T06:25:54;6.90;;;4.23;;
3022;SDS011;1521;53.584;9.938;2023-07-08T06:28:20;4.20;;;3.77;;
3022;SDS011;1521;53.584;9.938;2023-07-08T06:30:46;4.80;;;3.63;;
3022;SDS011;1521;53.584;9.938;2023-07-08T06:33:11;9.10;;;3.60;;
3022;SDS011;1521;53.584;9.938;2023-07-08T06:35:37;9.13;;;4.30;;
3022;SDS011;1521;53.584;9.938;2023-07-08T06:38:04;6.60;;;3.63;;
3022;SDS011;1521;53.584;9.938;2023-07-08T06:40:31;5.00;;;3.70;;
3022;SDS011;1521;53.584;9.938;2023-07-08T06:42:57;5.07;;;3.63;;
3022;SDS011;1521;53.584;9.938;2023-07-08T06:45:22;9.63;;;3.80;;
3022;SDS011;1521;53.584;9.938;2023-07-08T06:47:48;4.23;;;3.53;;
3022;SDS011;1521;53.584;9.938;2023-07-08T06:50:14;5.70;;;3.83;;
3022;SDS011;1521;53.584;9.938;2023-07-08T06:52:39;6.13;;;3.20;;
3022;SDS011;1521;53.584;9.938;2023-07-08T06:55:06;5.97;;;3.57;;
3022;SDS011;1521;53.584;9.938;2023-07-08T06:57:33;5.77;;;4.20;;
3022;SDS011;1521;53.584;9.938;2023-07-08T06:59:59;6.33;;;3.70;;
3022;SDS011;1521;53.584;9.938;2023-07-08T07:02:25;5.13;;;3.40;;
3022;SDS011;1521;53.584;9.938;2023-07-08T07:04:52;4.67;;;3.63;;
3022;SDS011;1521;53.584;9.938;2023-07-08T07:07:17;6.10;;;3.63;;
3022;SDS011;1521;53.584;9.938;2023-07-08T07:09:43;4.07;;;3.67;;
3022;SDS011;1521;53.584;9.938;2023-07-08T07:12:09;5.10;;;3.80;;
3022;SDS011;1521;53.584;9.938;2023-07-08T07:14:34;4.80;;;3.77;;
3022;SDS011;1521;53.584;9.938;2023-07-08T07:17:00;7.87;;;3.90;;
3022;SDS011;1521;53.584;9.938;2023-07-08T07:19:26;4.13;;;3.67;;
3022;SDS011;1521;53.584;9.938;2023-07-08T07:21:51;4.80;;;3.93;;
3022;SDS011;1521;53.584;9.938;2023-07-08T07:24:17;5.40;;;3.80;;
3022;SDS011;1521;53.584;9.938;2023-07-08T07:26:43;6.97;;;3.83;;
3022;SDS011;1521;53.584;9.938;2023-07-08T07:29:09;5.00;;;3.43;;
3022;SDS011;1521;53.584;9.938;2023-07-08T07:31:34;6.23;;;3.23;;
3022;SDS011;1521;53.584;9.938;2023-07-08T07:34:01;6.10;;;3.63;;
3022;SDS011;1521;53.584;9.938;2023-07-08T07:36:27;5.07;;;3.43;;
3022;SDS011;1521;53.584;9.938;2023-07-08T07:38:54;4.70;;;3.50;;
3022;SDS011;1521;53.584;9.938;2023-07-08T07:41:19;4.70;;;3.50;;
3022;SDS011;1521;53.584;9.938;2023-07-08T07:43:45;3.83;;;3.43;;
3022;SDS011;1521;53.584;9.938;2023-07-08T07:46:11;3.50;;;3.10;;
3022;SDS011;1521;53.584;9.938;2023-07-08T07:48:37;4.30;;;3.63;;
3022;SDS011;1521;53.584;9.938;2023-07-08T07:51:04;6.03;;;3.90;;
3022;SDS011;1521;53.584;9.938;2023-07-08T07:53:30;3.30;;;3.00;;
3022;SDS011;1521;53.584;9.938;2023-07-08T07:55:59;4.53;;;3.77;;
3022;SDS011;1521;53.584;9.938;2023-07-08T07:58:26;10.80;;;3.47;;
3022;SDS011;1521;53.584;9.938;2023-07-08T08:00:52;4.37;;;3.80;;
3022;SDS011;1521;53.584;9.938;2023-07-08T08:03:18;3.93;;;3.47;;
3022;SDS011;1521;53.584;9.938;2023-07-08T08:05:45;4.80;;;3.40;;
3022;SDS011;1521;53.584;9.938;2023-07-08T08:08:11;3.60;;;3.27;;
3022;SDS011;1521;53.584;9.938;2023-07-08T08:10:36;4.63;;;3.40;;
3022;SDS011;1521;53.584;9.938;2023-07-08T08:13:02;4.67;;;3.60;;
3022;SDS011;1521;53.584;9.938;2023-07-08T08:15:28;5.97;;;3.50;;
3022;SDS011;1521;53.584;9.938;2023-07-08T08:17:54;4.23;;;3.30;;
3022;SDS011;1521;53.584;9.938;2023-07-08T08:20:21;5.80;;;3.90;;
3022;SDS011;1521;53.584;9.938;2023-07-08T08:22:48;4.40;;;3.17;;
3022;SDS011;1521;53.584;9.938;2023-07-08T08:25:14;4.53;;;3.50;;
3022;SDS011;1521;53.584;9.938;2023-07-08T08:27:40;3.87;;;3.50;;
3022;SDS011;1521;53.584;9.938;2023-07-08T08:30:06;7.20;;;3.23;;
3022;SDS011;1521;53.584;9.938;2023-07-08T08:32:32;3.13;;;2.83;;
3022;SDS011;1521;53.584;9.938;2023-07-08T08:34:57;27.10;;;21.53;;
3022;SDS011;1521;53.584;9.938;2023-07-08T08:37:23;7.90;;;6.43;;
3022;SDS011;1521;53.584;9.938;2023-07-08T08:39:49;4.73;;;4.00;;
3022;SDS011;1521;53.584;9.938;2023-07-08T08:42:27;6.20;;;2.80;;
3022;SDS011;1521;53.584;9.938;2023-07-08T08:44:59;5.30;;;3.00;;
3022;SDS011;1521;53.584;9.938;2023-07-08T08:47:40;6.40;;;3.07;;
3022;SDS011;1521;53.584;9.938;2023-07-08T08:52:43;4.80;;;3.20;;
3022;SDS011;1521;53.584;9.938;2023-07-08T08:55:12;4.30;;;3.40;;
3022;SDS011;1521;53.584;9.938;2023-07-08T09:03:08;7.10;;;2.80;;
3022;SDS011;1521;53.584;9.938;2023-07-08T09:05:40;3.50;;;3.20;;
3022;SDS011;1521;53.584;9.938;2023-07-08T09:08:18;3.83;;;3.20;;
3022;SDS011;1521;53.584;9.938;2023-07-08T09:10:56;3.70;;;3.27;;
3022;SDS011;1521;53.584;9.938;2023-07-08T09:13:34;3.50;;;3.20;;
3022;SDS011;1521;53.584;9.938;2023-07-08T09:21:23;5.60;;;3.43;;
3022;SDS011;1521;53.584;9.938;2023-07-08T09:23:52;3.70;;;3.30;;
3022;SDS011;1521;53.584;9.938;2023-07-08T09:26:25;3.87;;;2.90;;
3022;SDS011;1521;53.584;9.938;2023-07-08T09:28:55;3.70;;;3.40;;
3022;SDS011;1521;53.584;9.938;2023-07-08T09:33:54;3.40;;;3.20;;
3022;SDS011;1521;53.584;9.938;2023-07-08T09:36:38;3.30;;;3.00;;
3022;SDS011;1521;53.584;9.938;2023-07-08T09:39:08;4.23;;;3.30;;
3022;SDS011;1521;53.584;9.938;2023-07-08T09:41:36;4.87;;;3.20;;
3022;SDS011;1521;53.584;9.938;2023-07-08T09:44:13;2.93;;;2.73;;
3022;SDS011;1521;53.584;9.938;2023-07-08T09:46:41;3.87;;;3.37;;
3022;SDS011;1521;53.584;9.938;2023-07-08T09:49:19;5.13;;;3.40;;
3022;SDS011;1521;53.584;9.938;2023-07-08T09:51:45;3.73;;;2.93;;
3022;SDS011;1521;53.584;9.938;2023-07-08T09:54:11;3.67;;;3.30;;
3022;SDS011;1521;53.584;9.938;2023-07-08T09:56:40;3.50;;;3.30;;
3022;SDS011;1521;53.584;9.938;2023-07-08T09:59:14;4.93;;;3.20;;
3022;SDS011;1521;53.584;9.938;2023-07-08T10:01:40;4.73;;;3.13;;
3022;SDS011;1521;53.584;9.938;2023-07-08T10:04:07;6.33;;;3.17;;
3022;SDS011;1521;53.584;9.938;2023-07-08T10:06:33;4.53;;;2.90;;
3022;SDS011;1521;53.584;9.938;2023-07-08T10:09:02;3.50;;;3.20;;
3022;SDS011;1521;53.584;9.938;2023-07-08T10:11:30;4.70;;;3.10;;
3022;SDS011;1521;53.584;9.938;2023-07-08T10:14:12;4.43;;;3.10;;
3022;SDS011;1521;53.584;9.938;2023-07-08T10:16:50;5.17;;;2.93;;
3022;SDS011;1521;53.584;9.938;2023-07-08T10:19:16;5.70;;;3.30;;
3022;SDS011;1521;53.584;9.938;2023-07-08T10:24:29;3.40;;;3.10;;
3022;SDS011;1521;53.584;9.938;2023-07-08T10:32:35;4.03;;;2.83;;
3022;SDS011;1521;53.584;9.938;2023-07-08T10:40:59;3.40;;;3.10;;
3022;SDS011;1521;53.584;9.938;2023-07-08T10:43:33;3.33;;;3.03;;
3022;SDS011;1521;53.584;9.938;2023-07-08T10:46:25;3.60;;;3.40;;
3022;SDS011;1521;53.584;9.938;2023-07-08T10:57:30;4.93;;;2.97;;
3022;SDS011;1521;53.584;9.938;2023-07-08T11:05:44;3.87;;;3.10;;
3022;SDS011;1521;53.584;9.938;2023-07-08T11:12:00;9.63;;;3.50;;
3022;SDS011;1521;53.584;9.938;2023-07-08T11:14:20;6.30;;;3.10;;
3022;SDS011;1521;53.584;9.938;2023-07-08T11:17:01;5.27;;;3.43;;
3022;SDS011;1521;53.584;9.938;2023-07-08T11:19:42;4.07;;;3.30;;
3022;SDS011;1521;53.584;9.938;2023-07-08T11:22:32;3.90;;;3.20;;
3022;SDS011;1521;53.584;9.938;2023-07-08T11:25:01;4.03;;;3.40;;
3022;SDS011;1521;53.584;9.938;2023-07-08T11:27:32;3.33;;;3.03;;
3022;SDS011;1521;53.584;9.938;2023-07-08T11:30:06;3.37;;;2.90;;
3022;SDS011;1521;53.584;9.938;2023-07-08T11:32:39;5.60;;;3.40;;
3022;SDS011;1521;53.584;9.938;2023-07-08T11:35:13;3.20;;;2.90;;
3022;SDS011;1521;53.584;9.938;2023-07-08T11:37:52;6.10;;;3.20;;
3022;SDS011;1521;53.584;9.938;2023-07-08T11:40:22;7.97;;;3.50;;
3022;SDS011;1521;53.584;9.938;2023-07-08T11:42:48;3.23;;;3.00;;
3022;SDS011;1521;53.584;9.938;2023-07-08T11:45:26;4.03;;;3.60;;
3022;SDS011;1521;53.584;9.938;2023-07-08T11:48:10;9.13;;;4.00;;
3022;SDS011;1521;53.584;9.938;2023-07-08T11:50:41;4.63;;;3.20;;
3022;SDS011;1521;53.584;9.938;2023-07-08T11:53:12;6.27;;;3.73;;
3022;SDS011;1521;53.584;9.938;2023-07-08T11:56:00;5.10;;;3.20;;
3022;SDS011;1521;53.584;9.938;2023-07-08T11:58:31;4.27;;;3.60;;
3022;SDS011;1521;53.584;9.938;2023-07-08T12:03:54;4.53;;;3.13;;
3022;SDS011;1521;53.584;9.938;2023-07-08T12:08:55;3.83;;;3.37;;
3022;SDS011;1521;53.584;9.938;2023-07-08T12:11:32;5.43;;;3.40;;
3022;SDS011;1521;53.584;9.938;2023-07-08T12:14:00;4.30;;;3.27;;
3022;SDS011;1521;53.584;9.938;2023-07-08T12:16:28;5.23;;;3.00;;
3022;SDS011;1521;53.584;9.938;2023-07-08T12:18:55;5.00;;;3.10;;
3022;SDS011;1521;53.584;9.938;2023-07-08T12:21:24;3.73;;;3.37;;
3022;SDS011;1521;53.584;9.938;2023-07-08T12:23:52;5.70;;;3.10;;
3022;SDS011;1521;53.584;9.938;2023-07-08T12:26:18;3.60;;;3.03;;
3022;SDS011;1521;53.584;9.938;2023-07-08T12:28:46;3.20;;;3.00;;
3022;SDS011;1521;53.584;9.938;2023-07-08T12:31:13;5.47;;;3.20;;
3022;SDS011;1521;53.584;9.938;2023-07-08T12:33:43;4.50;;;3.40;;
3022;SDS011;1521;53.584;9.938;2023-07-08T12:36:10;3.40;;;3.10;;
3022;SDS011;1521;53.584;9.938;2023-07-08T12:38:40;5.17;;;3.73;;
3022;SDS011;1521;53.584;9.938;2023-07-08T12:41:11;5.60;;;3.20;;
3022;SDS011;1521;53.584;9.938;2023-07-08T12:43:39;3.27;;;2.97;;
3022;SDS011;1521;53.584;9.938;2023-07-08T12:46:04;5.80;;;3.30;;
3022;SDS011;1521;53.584;9.938;2023-07-08T12:48:34;3.20;;;2.93;;
3022;SDS011;1521;53.584;9.938;2023-07-08T12:50:59;4.60;;;3.47;;
3022;SDS011;1521;53.584;9.938;2023-07-08T12:53:25;4.30;;;3.27;;
3022;SDS011;1521;53.584;9.938;2023-07-08T12:55:51;4.13;;;3.30;;
3022;SDS011;1521;53.584;9.938;2023-07-08T12:58:24;3.70;;;3.37;;
3022;SDS011;1521;53.584;9.938;2023-07-08T13:00:52;3.67;;;3.37;;
3022;SDS011;1521;53.584;9.938;2023-07-08T13:03:19;3.70;;;3.40;;
3022;SDS011;1521;53.584;9.938;2023-07-08T13:05:48;6.03;;;3.17;;
3022;SDS011;1521;53.584;9.938;2023-07-08T13:08:15;3.40;;;2.87;;
3022;SDS011;1521;53.584;9.938;2023-07-08T13:10:43;4.43;;;3.53;;
3022;SDS011;1521;53.584;9.938;2023-07-08T13:13:14;10.90;;;3.83;;
3022;SDS011;1521;53.584;9.938;2023-07-08T13:15:46;6.20;;;3.83;;
3022;SDS011;1521;53.584;9.938;2023-07-08T13:18:16;8.67;;;3.20;;
3022;SDS011;1521;53.584;9.938;2023-07-08T13:20:48;3.70;;;3.40;;
3022;SDS011;1521;53.584;9.938;2023-07-08T13:23:16;3.73;;;3.23;;
3022;SDS011;1521;53.584;9.938;2023-07-08T13:25:42;3.80;;;3.40;;
3022;SDS011;1521;53.584;9.938;2023-07-08T13:30:54;8.83;;;3.87;;
3022;SDS011;1521;53.584;9.938;2023-07-08T13:33:31;3.90;;;3.50;;
3022;SDS011;1521;53.584;9.938;2023-07-08T13:35:57;4.50;;;3.77;;
3022;SDS011;1521;53.584;9.938;2023-07-08T13:38:27;5.57;;;3.40;;
3022;SDS011;1521;53.584;9.938;2023-07-08T13:41:00;6.30;;;3.50;;
3022;SDS011;1521;53.584;9.938;2023-07-08T13:43:30;6.83;;;3.10;;
3022;SDS011;1521;53.584;9.938;2023-07-08T13:45:58;4.23;;;3.27;;
3022;SDS011;1521;53.584;9.938;2023-07-08T13:48:26;4.43;;;3.43;;
3022;SDS011;1521;53.584;9.938;2023-07-08T13:53:59;3.90;;;3.60;;
3022;SDS011;1521;53.584;9.938;2023-07-08T13:58:59;4.97;;;3.47;;
3022;SDS011;1521;53.584;9.938;2023-07-08T14:01:29;4.63;;;4.03;;
3022;SDS011;1521;53.584;9.938;2023-07-08T14:03:57;4.30;;;3.53;;
3022;SDS011;1521;53.584;9.938;2023-07-08T14:06:24;4.20;;;3.80;;
3022;SDS011;1521;53.584;9.938;2023-07-08T14:08:54;4.77;;;3.50;;
3022;SDS011;1521;53.584;9.938;2023-07-08T14:11:22;4.87;;;3.77;;
3022;SDS011;1521;53.584;9.938;2023-07-08T14:13:48;4.57;;;3.83;;
3022;SDS011;1521;53.584;9.938;2023-07-08T14:18:47;4.63;;;3.60;;
3022;SDS011;1521;53.584;9.938;2023-07-08T14:21:13;4.20;;;3.90;;
3022;SDS011;1521;53.584;9.938;2023-07-08T14:23:39;6.20;;;3.40;;
3022;SDS011;1521;53.584;9.938;2023-07-08T14:26:07;5.10;;;4.30;;
3022;SDS011;1521;53.584;9.938;2023-07-08T14:28:36;4.00;;;3.47;;
3022;SDS011;1521;53.584;9.938;2023-07-08T14:31:02;5.23;;;3.80;;
3022;SDS011;1521;53.584;9.938;2023-07-08T14:33:28;4.80;;;3.73;;
3022;SDS011;1521;53.584;9.938;2023-07-08T14:35:53;4.50;;;3.80;;
3022;SDS011;1521;53.584;9.938;2023-07-08T14:38:19;5.60;;;4.20;;
3022;SDS011;1521;53.584;9.938;2023-07-08T14:40:44;4.40;;;4.00;;
3022;SDS011;1521;53.584;9.938;2023-07-08T14:45:57;7.10;;;3.67;;
3022;SDS011;1521;53.584;9.938;2023-07-08T14:48:27;4.90;;;3.90;;
3022;SDS011;1521;53.584;9.938;2023-07-08T14:50:54;5.47;;;3.90;;
3022;SDS011;1521;53.584;9.938;2023-07-08T14:53:20;3.90;;;3.60;;
3022;SDS011;1521;53.584;9.938;2023-07-08T14:55:47;4.67;;;4.20;;
3022;SDS011;1521;53.584;9.938;2023-07-08T14:58:37;4.40;;;3.43;;
3022;SDS011;1521;53.584;9.938;2023-07-08T15:01:07;4.83;;;4.33;;
3022;SDS011;1521;53.584;9.938;2023-07-08T15:03:43;4.57;;;4.10;;
3022;SDS011;1521;53.584;9.938;2023-07-08T15:06:10;8.00;;;4.07;;
3022;SDS011;1521;53.584;9.938;2023-07-08T15:08:35;5.17;;;3.80;;
3022;SDS011;1521;53.584;9.938;2023-07-08T15:11:01;4.50;;;4.10;;
3022;SDS011;1521;53.584;9.938;2023-07-08T15:13:30;4.67;;;4.17;;
3022;SDS011;1521;53.584;9.938;2023-07-08T15:15:57;5.10;;;4.10;;
3022;SDS011;1521;53.584;9.938;2023-07-08T15:18:22;4.40;;;4.00;;
3022;SDS011;1521;53.584;9.938;2023-07-08T15:20:48;4.63;;;4.23;;
3022;SDS011;1521;53.584;9.938;2023-07-08T15:23:13;4.47;;;3.93;;
3022;SDS011;1521;53.584;9.938;2023-07-08T15:25:43;6.00;;;4.20;;
3022;SDS011;1521;53.584;9.938;2023-07-08T15:30:44;4.53;;;4.13;;
3022;SDS011;1521;53.584;9.938;2023-07-08T15:33:10;4.77;;;3.93;;
3022;SDS011;1521;53.584;9.938;2023-07-08T15:35:39;4.07;;;3.53;;
3022;SDS011;1521;53.584;9.938;2023-07-08T15:38:05;4.77;;;3.80;;
3022;SDS011;1521;53.584;9.938;2023-07-08T15:40:34;6.30;;;4.40;;
3022;SDS011;1521;53.584;9.938;2023-07-08T15:43:00;4.50;;;4.10;;
3022;SDS011;1521;53.584;9.938;2023-07-08T15:45:28;4.43;;;4.03;;
3022;SDS011;1521;53.584;9.938;2023-07-08T15:47:57;4.10;;;3.67;;
3022;SDS011;1521;53.584;9.938;2023-07-08T15:50:24;4.80;;;4.00;;
3022;SDS011;1521;53.584;9.938;2023-07-08T15:52:52;5.63;;;4.13;;
3022;SDS011;1521;53.584;9.938;2023-07-08T15:55:26;4.73;;;4.30;;
3022;SDS011;1521;53.584;9.938;2023-07-08T15:58:32;6.17;;;4.40;;
3022;SDS011;1521;53.584;9.938;2023-07-08T16:00:52;4.90;;;4.07;;
3022;SDS011;1521;53.584;9.938;2023-07-08T16:03:25;4.63;;;4.13;;
3022;SDS011;1521;53.584;9.938;2023-07-08T16:05:53;10.10;;;4.63;;
3022;SDS011;1521;53.584;9.938;2023-07-08T16:08:20;7.07;;;4.80;;
3022;SDS011;1521;53.584;9.938;2023-07-08T16:10:50;10.20;;;7.50;;
3022;SDS011;1521;53.584;9.938;2023-07-08T16:13:31;42.17;;;37.97;;
3022;SDS011;1521;53.584;9.938;2023-07-08T16:15:59;6.40;;;5.80;;
3022;SDS011;1521;53.584;9.938;2023-07-08T16:18:25;4.30;;;3.93;;
3022;SDS011;1521;53.584;9.938;2023-07-08T16:20:51;4.57;;;4.17;;
3022;SDS011;1521;53.584;9.938;2023-07-08T16:23:17;5.03;;;3.97;;
3022;SDS011;1521;53.584;9.938;2023-07-08T16:25:44;6.93;;;4.10;;
3022;SDS011;1521;53.584;9.938;2023-07-08T16:28:17;4.10;;;3.77;;
3022;SDS011;1521;53.584;9.938;2023-07-08T16:30:55;7.70;;;3.33;;
3022;SDS011;1521;53.584;9.938;2023-07-08T16:33:21;10.37;;;3.83;;